createdAt,value
2019-05-11T00:00:50.499Z,7.77
2019-05-11T00:03:19.864Z,7.97
2019-05-11T00:05:48.732Z,7.50
2019-05-11T00:08:17.745Z,8.47
2019-05-11T00:10:46.732Z,6.97
2019-05-11T00:13:16.041Z,6.83
2019-05-11T00:15:45.036Z,7.10
2019-05-11T00:18:14.045Z,7.03
2019-05-11T00:20:43.337Z,6.90
2019-05-11T00:23:12.623Z,7.13
2019-05-11T00:25:41.547Z,6.93
2019-05-11T00:28:10.843Z,7.13
2019-05-11T00:30:39.552Z,6.93
2019-05-11T00:33:08.509Z,7.10
2019-05-11T00:35:37.547Z,7.97
2019-05-11T00:38:06.179Z,7.33
2019-05-11T00:40:34.883Z,7.83
2019-05-11T00:43:03.682Z,7.43
2019-05-11T00:45:32.318Z,7.17
2019-05-11T00:48:01.540Z,6.90
2019-05-11T00:50:38.941Z,7.23
2019-05-11T00:53:00.648Z,7.27
2019-05-11T00:55:29.315Z,7.40
2019-05-11T00:57:58.219Z,6.97
2019-05-11T01:00:27.528Z,7.90
2019-05-11T01:02:56.773Z,6.70
2019-05-11T01:05:25.443Z,6.90
2019-05-11T01:07:54.523Z,7.17
2019-05-11T01:10:33.798Z,7.07
2019-05-11T01:12:53.559Z,7.13
2019-05-11T01:15:22.591Z,6.63
2019-05-11T01:17:51.538Z,6.67
2019-05-11T01:20:20.602Z,7.10
2019-05-11T01:22:49.255Z,7.67
2019-05-11T01:25:17.906Z,6.97
2019-05-11T01:27:46.866Z,6.90
2019-05-11T01:30:15.712Z,7.90
2019-05-11T01:32:44.347Z,7.40
2019-05-11T01:35:13.049Z,6.77
2019-05-11T01:37:42.354Z,6.60
2019-05-11T01:40:11.275Z,6.50
2019-05-11T01:42:40.525Z,6.63
2019-05-11T01:45:09.444Z,6.43
2019-05-11T01:47:38.452Z,6.13
2019-05-11T01:50:07.816Z,6.60
2019-05-11T01:52:36.815Z,6.67
2019-05-11T01:55:05.724Z,7.00
2019-05-11T01:57:34.623Z,6.60
2019-05-11T02:00:04.093Z,7.20
2019-05-11T02:02:35.194Z,7.80
2019-05-11T02:05:22.352Z,6.13
2019-05-11T02:07:51.352Z,6.90
2019-05-11T02:10:20.075Z,6.93
2019-05-11T02:12:48.726Z,7.10
2019-05-11T02:15:17.720Z,6.73
2019-05-11T02:17:46.355Z,7.60
2019-05-11T02:20:15.807Z,7.40
2019-05-11T02:22:44.441Z,8.67
2019-05-11T02:25:14.512Z,9.07
2019-05-11T02:27:43.529Z,9.10
2019-05-11T02:30:12.512Z,8.77
2019-05-11T02:32:41.495Z,7.00
2019-05-11T02:35:10.238Z,6.77
2019-05-11T02:37:39.178Z,6.43
2019-05-11T02:40:07.998Z,6.40
2019-05-11T02:42:37.102Z,5.03
2019-05-11T02:45:06.825Z,6.20
2019-05-11T02:47:35.775Z,6.43
2019-05-11T02:50:05.174Z,5.90
2019-05-11T02:52:34.771Z,5.87
2019-05-11T02:55:03.600Z,5.50
2019-05-11T02:57:32.555Z,5.43
2019-05-11T03:00:01.969Z,5.87
2019-05-11T03:02:30.578Z,6.37
2019-05-11T03:05:00.463Z,6.43
2019-05-11T03:07:29.668Z,5.87
2019-05-11T03:09:58.852Z,6.03
2019-05-11T03:12:27.857Z,5.73
2019-05-11T03:14:56.855Z,6.90
2019-05-11T03:17:30.040Z,5.83
2019-05-11T03:19:59.236Z,5.73
2019-05-11T03:22:28.549Z,6.73
2019-05-11T03:24:57.427Z,6.50
2019-05-11T03:27:26.339Z,6.17
2019-05-11T03:30:00.021Z,6.10
2019-05-11T03:32:25.679Z,6.40
2019-05-11T03:34:54.648Z,7.27
2019-05-11T03:37:23.302Z,7.10
2019-05-11T03:39:51.918Z,7.47
2019-05-11T03:42:21.198Z,7.33
2019-05-11T03:44:49.824Z,6.90
2019-05-11T03:47:18.466Z,7.67
2019-05-11T03:49:47.976Z,6.50
2019-05-11T03:52:16.673Z,6.30
2019-05-11T03:54:45.557Z,6.97
2019-05-11T03:57:14.558Z,6.67
2019-05-11T03:59:43.521Z,7.10
2019-05-11T04:02:12.435Z,6.60
2019-05-11T04:04:41.455Z,6.27
2019-05-11T04:07:10.425Z,7.20
2019-05-11T04:09:39.130Z,6.63
2019-05-11T04:12:08.107Z,6.80
2019-05-11T04:14:37.297Z,6.43
2019-05-11T04:17:06.603Z,6.80
2019-05-11T04:19:35.246Z,7.90
2019-05-11T04:22:04.282Z,7.27
2019-05-11T04:24:32.946Z,6.13
2019-05-11T04:27:02.481Z,7.27
2019-05-11T04:29:31.454Z,6.83
2019-05-11T04:32:00.088Z,7.70
2019-05-11T04:34:29.044Z,6.80
2019-05-11T04:36:58.241Z,6.67
2019-05-11T04:39:27.443Z,7.10
2019-05-11T04:41:56.059Z,7.00
2019-05-11T04:44:24.710Z,6.83
2019-05-11T04:46:54.008Z,7.00
2019-05-11T04:49:22.651Z,6.70
2019-05-11T04:51:51.589Z,6.83
2019-05-11T04:54:20.237Z,6.83
2019-05-11T04:56:49.186Z,7.00
2019-05-11T04:59:18.770Z,6.23
2019-05-11T05:01:48.074Z,5.33
2019-05-11T05:04:16.806Z,5.90
2019-05-11T05:06:58.946Z,6.00
2019-05-11T05:09:16.149Z,5.87
2019-05-11T05:11:44.798Z,5.93
2019-05-11T05:14:13.774Z,6.00
2019-05-11T05:16:42.426Z,6.57
2019-05-11T05:19:12.038Z,6.70
2019-05-11T05:21:40.688Z,6.47
2019-05-11T05:24:09.320Z,6.00
2019-05-11T05:26:37.977Z,5.80
2019-05-11T05:29:06.927Z,5.77
2019-05-11T05:31:37.021Z,5.83
2019-05-11T05:34:05.664Z,6.20
2019-05-11T05:36:34.601Z,6.70
2019-05-11T05:39:03.742Z,6.33
2019-05-11T05:41:32.996Z,7.50
2019-05-11T05:44:01.891Z,6.43
2019-05-11T05:46:31.073Z,7.20
2019-05-11T05:49:00.077Z,7.97
2019-05-11T05:51:29.052Z,7.37
2019-05-11T05:53:58.581Z,7.57
2019-05-11T05:56:27.570Z,8.07
2019-05-11T05:58:56.246Z,8.60
2019-05-11T06:01:25.470Z,7.57
2019-05-11T06:03:54.762Z,4.47
2019-05-11T06:06:23.749Z,4.10
2019-05-11T06:08:52.957Z,3.90
2019-05-11T06:11:21.602Z,3.93
2019-05-11T06:13:50.849Z,3.50
2019-05-11T06:16:19.599Z,4.13
2019-05-11T06:18:48.529Z,3.17
2019-05-11T06:21:17.167Z,3.90
2019-05-11T06:23:45.822Z,3.20
2019-05-11T06:26:15.106Z,2.90
2019-05-11T06:28:44.389Z,3.07
2019-05-11T06:31:13.283Z,3.30
2019-05-11T06:33:42.172Z,3.03
2019-05-11T06:36:10.837Z,2.97
2019-05-11T06:38:39.462Z,3.23
2019-05-11T06:41:08.440Z,3.17
2019-05-11T06:43:37.471Z,3.30
2019-05-11T06:46:06.733Z,2.90
2019-05-11T06:48:35.619Z,2.50
2019-05-11T06:51:04.283Z,2.40
2019-05-11T06:53:32.918Z,2.53
2019-05-11T06:56:01.558Z,2.87
2019-05-11T06:58:30.189Z,2.80
2019-05-11T07:00:59.155Z,3.13
2019-05-11T07:03:28.052Z,2.83
2019-05-11T07:05:57.260Z,2.90
2019-05-11T07:08:25.865Z,2.50
2019-05-11T07:10:55.136Z,2.80
2019-05-11T07:13:24.152Z,2.77
2019-05-11T07:15:53.427Z,2.53
2019-05-11T07:18:22.074Z,2.97
2019-05-11T07:20:51.163Z,2.40
2019-05-11T07:23:20.301Z,2.23
2019-05-11T07:25:48.901Z,2.40
2019-05-11T07:28:17.632Z,2.67
2019-05-11T07:30:46.278Z,2.50
2019-05-11T07:33:14.904Z,2.30
2019-05-11T07:35:43.861Z,2.87
2019-05-11T07:38:12.468Z,2.63
2019-05-11T07:40:41.427Z,2.60
2019-05-11T07:43:10.868Z,2.80
2019-05-11T07:45:39.920Z,2.73
2019-05-11T07:48:09.113Z,2.87
2019-05-11T07:50:38.851Z,2.60
2019-05-11T07:53:08.378Z,2.40
2019-05-11T07:55:38.487Z,2.80
2019-05-11T07:58:08.086Z,2.47
2019-05-11T08:00:39.805Z,2.27
2019-05-11T08:03:09.035Z,2.40
2019-05-11T08:05:38.732Z,2.23
2019-05-11T08:08:08.680Z,2.50
2019-05-11T08:10:39.019Z,2.53
2019-05-11T08:13:09.183Z,2.03
2019-05-11T08:15:38.442Z,2.87
2019-05-11T08:18:08.543Z,2.50
2019-05-11T08:20:38.509Z,2.97
2019-05-11T08:23:09.159Z,2.20
2019-05-11T08:25:38.460Z,2.33
2019-05-11T08:28:14.379Z,2.33
2019-05-11T08:30:43.306Z,2.37
2019-05-11T08:33:12.609Z,2.60
2019-05-11T08:35:41.320Z,2.23
2019-05-11T08:38:09.956Z,2.00
2019-05-11T08:40:38.677Z,2.10
2019-05-11T08:43:08.789Z,2.30
2019-05-11T08:45:39.281Z,3.03
2019-05-11T08:48:08.610Z,2.30
2019-05-11T08:50:38.256Z,1.97
2019-05-11T08:53:08.623Z,2.43
2019-05-11T08:55:38.312Z,2.23
2019-05-11T08:58:07.973Z,2.53
2019-05-11T09:00:38.928Z,2.07
2019-05-11T09:03:08.705Z,2.03
2019-05-11T09:05:38.409Z,2.80
2019-05-11T09:08:08.309Z,3.00
2019-05-11T09:10:39.705Z,2.30
2019-05-11T09:13:08.108Z,2.20
2019-05-11T09:15:40.452Z,2.03
2019-05-11T09:18:08.517Z,2.50
2019-05-11T09:20:38.000Z,2.30
2019-05-11T09:23:08.243Z,2.03
2019-05-11T09:25:38.463Z,2.37
2019-05-11T09:28:08.608Z,2.20
2019-05-11T09:30:37.892Z,2.40
2019-05-11T09:33:08.580Z,2.30
2019-05-11T09:35:47.553Z,1.93
2019-05-11T09:38:08.410Z,2.17
2019-05-11T09:40:38.603Z,1.93
2019-05-11T09:43:08.644Z,1.70
2019-05-11T09:45:48.125Z,1.93
2019-05-11T09:48:08.739Z,2.00
2019-05-11T09:50:38.817Z,2.03
2019-05-11T09:53:08.525Z,1.80
2019-05-11T09:55:39.002Z,1.53
2019-05-11T09:58:08.508Z,2.03
2019-05-11T10:00:38.809Z,1.90
2019-05-11T10:03:08.316Z,2.20
2019-05-11T10:05:38.420Z,2.00
2019-05-11T10:08:07.933Z,2.20
2019-05-11T10:10:38.379Z,2.20
2019-05-11T10:13:08.107Z,1.93
2019-05-11T10:15:38.504Z,2.60
2019-05-11T10:18:08.190Z,2.07
2019-05-11T10:20:39.018Z,2.40
2019-05-11T10:23:08.372Z,2.13
2019-05-11T10:25:39.080Z,2.10
2019-05-11T10:28:08.695Z,2.13
2019-05-11T10:30:38.591Z,2.23
2019-05-11T10:33:08.402Z,2.33
2019-05-11T10:35:37.856Z,2.23
2019-05-11T10:38:09.002Z,2.00
2019-05-11T10:40:38.772Z,2.60
2019-05-11T10:43:08.048Z,2.60
2019-05-11T10:45:37.910Z,2.27
2019-05-11T10:48:08.739Z,2.20
2019-05-11T10:50:38.073Z,3.00
2019-05-11T10:53:08.003Z,2.53
2019-05-11T10:55:38.617Z,1.30
2019-05-11T10:58:08.625Z,1.90
2019-05-11T11:00:38.830Z,2.17
2019-05-11T11:03:08.559Z,2.20
2019-05-11T11:05:38.458Z,2.47
2019-05-11T11:08:08.422Z,2.33
2019-05-11T11:10:37.886Z,2.13
2019-05-11T11:13:08.433Z,2.27
2019-05-11T11:15:38.222Z,2.83
2019-05-11T11:18:08.592Z,2.53
2019-05-11T11:20:38.473Z,2.50
2019-05-11T11:23:08.784Z,2.60
2019-05-11T11:25:37.874Z,3.13
2019-05-11T11:28:08.449Z,3.03
2019-05-11T11:30:37.954Z,2.17
2019-05-11T11:33:07.962Z,2.87
2019-05-11T11:35:38.548Z,2.83
2019-05-11T11:38:08.698Z,2.60
2019-05-11T11:40:38.738Z,2.90
2019-05-11T11:43:08.695Z,2.53
2019-05-11T11:45:38.087Z,2.33
2019-05-11T11:48:08.639Z,2.10
2019-05-11T11:50:37.915Z,2.93
2019-05-11T11:53:08.368Z,3.00
2019-05-11T11:55:38.860Z,12.57
2019-05-11T11:58:08.420Z,2.57
2019-05-11T12:00:39.137Z,3.07
2019-05-11T12:03:08.196Z,2.53
2019-05-11T12:05:38.652Z,3.03
2019-05-11T12:08:08.421Z,2.97
2019-05-11T12:10:38.033Z,3.40
2019-05-11T12:13:08.701Z,3.07
2019-05-11T12:15:38.748Z,2.70
2019-05-11T12:18:08.347Z,2.80
2019-05-11T12:20:39.006Z,2.90
2019-05-11T12:23:08.766Z,2.67
2019-05-11T12:25:40.355Z,2.97
2019-05-11T12:28:08.218Z,3.27
2019-05-11T12:30:37.689Z,2.73
2019-05-11T12:33:08.276Z,2.73
2019-05-11T12:35:37.759Z,2.40
2019-05-11T12:38:07.848Z,2.63
2019-05-11T12:40:38.936Z,2.77
2019-05-11T12:43:08.326Z,2.90
2019-05-11T12:45:37.713Z,2.90
2019-05-11T12:48:08.921Z,2.87
2019-05-11T12:50:37.871Z,3.00
2019-05-11T12:53:08.008Z,2.57
2019-05-11T12:55:37.953Z,2.50
2019-05-11T12:58:08.553Z,2.33
2019-05-11T13:00:39.167Z,2.50
2019-05-11T13:03:08.375Z,2.33
2019-05-11T13:05:37.882Z,3.13
2019-05-11T13:08:07.979Z,2.87
2019-05-11T13:10:37.613Z,2.70
2019-05-11T13:13:08.842Z,2.83
2019-05-11T13:15:38.723Z,2.57
2019-05-11T13:18:08.503Z,2.70
2019-05-11T13:20:37.832Z,2.70
2019-05-11T13:23:07.990Z,3.00
2019-05-11T13:25:38.800Z,2.47
2019-05-11T13:28:08.565Z,2.40
2019-05-11T13:30:38.269Z,2.10
2019-05-11T13:33:08.603Z,2.30
2019-05-11T13:35:37.751Z,2.53
2019-05-11T13:38:08.728Z,2.97
2019-05-11T13:40:38.189Z,2.53
2019-05-11T13:43:08.307Z,2.50
2019-05-11T13:45:38.714Z,2.50
2019-05-11T13:48:08.554Z,2.23
2019-05-11T13:50:38.653Z,2.90
2019-05-11T13:53:07.866Z,2.33
2019-05-11T13:55:38.818Z,2.27
2019-05-11T13:58:08.339Z,2.60
2019-05-11T14:00:38.063Z,2.30
2019-05-11T14:03:08.593Z,2.80
2019-05-11T14:05:37.988Z,1.90
2019-05-11T14:08:08.096Z,1.93
2019-05-11T14:10:38.366Z,2.80
2019-05-11T14:13:08.903Z,2.30
2019-05-11T14:15:37.839Z,2.37
2019-05-11T14:18:09.384Z,2.80
2019-05-11T14:20:37.971Z,2.13
2019-05-11T14:23:07.690Z,2.23
2019-05-11T14:25:38.054Z,2.57
2019-05-11T14:28:08.904Z,2.43
2019-05-11T14:30:38.695Z,2.30
2019-05-11T14:33:08.774Z,2.83
2019-05-11T14:35:38.555Z,2.10
2019-05-11T14:38:08.110Z,2.80
2019-05-11T14:40:38.752Z,2.00
2019-05-11T14:43:08.376Z,2.23
2019-05-11T14:45:38.234Z,2.00
2019-05-11T14:48:22.601Z,1.80
2019-05-11T14:50:39.405Z,2.00
2019-05-11T14:53:08.734Z,1.80
2019-05-11T14:55:38.136Z,2.00
2019-05-11T14:58:08.349Z,1.87
2019-05-11T15:00:39.174Z,2.40
2019-05-11T15:03:08.830Z,2.00
2019-05-11T15:05:41.137Z,1.90
2019-05-11T15:08:08.760Z,1.70
2019-05-11T15:10:38.307Z,1.90
2019-05-11T15:13:08.086Z,1.90
2019-05-11T15:15:39.224Z,1.83
2019-05-11T15:18:08.516Z,2.00
2019-05-11T15:20:38.900Z,2.03
2019-05-11T15:23:08.801Z,2.17
2019-05-11T15:25:38.347Z,2.30
2019-05-11T15:28:08.950Z,1.93
2019-05-11T15:30:38.187Z,1.87
2019-05-11T15:33:07.850Z,2.10
2019-05-11T15:35:37.742Z,2.33
2019-05-11T15:38:08.692Z,2.17
2019-05-11T15:40:38.490Z,2.40
2019-05-11T15:43:08.785Z,2.30
2019-05-11T15:45:38.265Z,2.43
2019-05-11T15:48:08.408Z,2.27
2019-05-11T15:50:39.892Z,2.43
2019-05-11T15:53:08.764Z,2.20
2019-05-11T15:55:42.255Z,2.20
2019-05-11T15:58:09.322Z,2.60
2019-05-11T16:00:40.051Z,2.23
2019-05-11T16:03:08.674Z,1.90
2019-05-11T16:05:37.374Z,2.07
2019-05-11T16:08:08.394Z,2.20
2019-05-11T16:10:38.414Z,2.67
2019-05-11T16:13:09.237Z,2.30
2019-05-11T16:15:38.376Z,2.83
2019-05-11T16:18:08.322Z,2.53
2019-05-11T16:20:37.150Z,2.33
2019-05-11T16:23:05.805Z,2.40
2019-05-11T16:25:34.799Z,2.77
2019-05-11T16:28:03.444Z,2.90
2019-05-11T16:30:32.379Z,2.80
2019-05-11T16:33:01.363Z,2.70
2019-05-11T16:35:30.355Z,2.67
2019-05-11T16:37:59.416Z,3.70
2019-05-11T16:40:29.509Z,3.07
2019-05-11T16:42:58.868Z,2.70
2019-05-11T16:45:28.328Z,3.10
2019-05-11T16:47:58.870Z,2.70
2019-05-11T16:50:28.293Z,2.73
2019-05-11T16:52:58.477Z,3.17
2019-05-11T16:55:27.504Z,2.80
2019-05-11T16:57:58.620Z,2.97
2019-05-11T17:00:27.160Z,2.73
2019-05-11T17:02:57.695Z,2.87
2019-05-11T17:05:33.187Z,2.90
2019-05-11T17:07:58.716Z,2.43
2019-05-11T17:10:28.524Z,2.77
2019-05-11T17:12:58.167Z,2.53
2019-05-11T17:15:28.914Z,2.67
2019-05-11T17:17:58.777Z,2.73
2019-05-11T17:20:27.949Z,2.10
2019-05-11T17:22:56.598Z,2.70
2019-05-11T17:25:25.595Z,3.37
2019-05-11T17:27:54.315Z,2.90
2019-05-11T17:30:22.950Z,2.60
2019-05-11T17:32:51.579Z,2.47
2019-05-11T17:35:20.519Z,3.00
2019-05-11T17:37:49.212Z,2.40
2019-05-11T17:40:22.810Z,2.40
2019-05-11T17:42:48.944Z,2.30
2019-05-11T17:45:18.879Z,2.60
2019-05-11T17:47:48.066Z,2.57
2019-05-11T17:50:19.124Z,2.50
2019-05-11T17:52:48.011Z,2.60
2019-05-11T17:55:18.461Z,2.80
2019-05-11T17:57:49.578Z,2.33
2019-05-11T18:00:20.135Z,2.47
2019-05-11T18:02:49.242Z,2.30
2019-05-11T18:05:18.269Z,2.63
2019-05-11T18:07:47.494Z,2.33
2019-05-11T18:10:18.580Z,2.70
2019-05-11T18:12:48.592Z,2.47
2019-05-11T18:15:18.771Z,2.50
2019-05-11T18:17:48.648Z,2.70
2019-05-11T18:20:21.416Z,2.40
2019-05-11T18:22:49.117Z,2.80
2019-05-11T18:25:18.572Z,2.50
2019-05-11T18:27:48.420Z,2.83
2019-05-11T18:30:18.346Z,2.50
2019-05-11T18:32:49.088Z,2.40
2019-05-11T18:35:19.364Z,3.03
2019-05-11T18:37:48.191Z,2.50
2019-05-11T18:40:18.747Z,3.07
2019-05-11T18:42:48.717Z,3.33
2019-05-11T18:45:18.891Z,3.00
2019-05-11T18:47:49.011Z,2.40
2019-05-11T18:50:29.973Z,2.70
2019-05-11T18:52:49.357Z,2.60
2019-05-11T18:55:19.184Z,2.53
2019-05-11T18:57:49.031Z,2.40
2019-05-11T19:00:18.821Z,2.83
2019-05-11T19:02:49.503Z,3.10
2019-05-11T19:05:18.292Z,3.00
2019-05-11T19:07:48.171Z,2.97
2019-05-11T19:10:17.194Z,2.80
2019-05-11T19:12:48.424Z,3.30
2019-05-11T19:15:18.741Z,3.17
2019-05-11T19:17:48.993Z,2.90
2019-05-11T19:20:18.283Z,3.30
2019-05-11T19:22:47.194Z,3.33
2019-05-11T19:25:18.112Z,3.27
2019-05-11T19:27:50.353Z,3.10
2019-05-11T19:30:18.461Z,3.40
2019-05-11T19:32:48.701Z,3.70
2019-05-11T19:35:20.953Z,2.93
2019-05-11T19:37:48.892Z,3.53
2019-05-11T19:40:17.591Z,3.27
2019-05-11T19:42:58.743Z,3.40
2019-05-11T19:45:29.070Z,3.20
2019-05-11T19:47:57.940Z,3.50
2019-05-11T19:50:26.824Z,3.37
2019-05-11T19:52:57.776Z,3.63
2019-05-11T19:55:28.527Z,3.40
2019-05-11T19:57:57.593Z,3.10
2019-05-11T20:00:26.290Z,3.27
2019-05-11T20:02:54.928Z,3.40
2019-05-11T20:05:23.614Z,3.20
2019-05-11T20:07:52.484Z,3.03
2019-05-11T20:10:21.119Z,3.10
2019-05-11T20:12:49.832Z,3.47
2019-05-11T20:15:19.305Z,3.40
2019-05-11T20:17:49.146Z,3.53
2019-05-11T20:20:18.642Z,3.30
2019-05-11T20:22:48.537Z,3.17
2019-05-11T20:25:18.923Z,2.90
2019-05-11T20:27:48.866Z,3.17
2019-05-11T20:30:19.376Z,3.50
2019-05-11T20:32:49.157Z,3.00
2019-05-11T20:35:18.124Z,2.90
2019-05-11T20:37:47.025Z,3.40
2019-05-11T20:40:18.073Z,3.23
2019-05-11T20:42:49.151Z,3.13
2019-05-11T20:45:18.821Z,3.27
2019-05-11T20:47:48.672Z,3.67
2019-05-11T20:50:18.557Z,3.77
2019-05-11T20:52:48.278Z,3.37
2019-05-11T20:55:18.203Z,2.83
2019-05-11T20:57:48.705Z,3.07
2019-05-11T21:00:18.729Z,3.13
2019-05-11T21:02:48.963Z,2.93
2019-05-11T21:05:18.377Z,2.83
2019-05-11T21:07:47.771Z,2.83
2019-05-11T21:10:17.454Z,2.00
2019-05-11T21:12:46.449Z,2.50
2019-05-11T21:15:16.260Z,2.20
2019-05-11T21:17:44.928Z,2.63
2019-05-11T21:20:13.614Z,2.60
2019-05-11T21:22:42.857Z,2.73
2019-05-11T21:25:11.711Z,2.17
2019-05-11T21:27:41.032Z,2.90
2019-05-11T21:30:10.344Z,2.90
2019-05-11T21:32:39.167Z,2.27
2019-05-11T21:35:08.967Z,2.53
2019-05-11T21:37:38.889Z,2.37
2019-05-11T21:40:09.346Z,2.30
2019-05-11T21:42:39.182Z,2.00
2019-05-11T21:45:09.430Z,2.20
2019-05-11T21:47:39.810Z,2.33
2019-05-11T21:50:08.815Z,2.00
2019-05-11T21:52:38.620Z,2.00
2019-05-11T21:55:09.982Z,1.90
2019-05-11T21:57:38.829Z,2.20
2019-05-11T22:00:09.364Z,2.10
2019-05-11T22:02:39.042Z,2.10
2019-05-11T22:05:08.794Z,1.97
2019-05-11T22:07:38.706Z,2.10
2019-05-11T22:10:09.974Z,2.30
2019-05-11T22:12:39.503Z,2.30
2019-05-11T22:15:09.371Z,2.37
2019-05-11T22:17:39.593Z,2.00
2019-05-11T22:20:09.029Z,2.27
2019-05-11T22:22:39.030Z,2.27
2019-05-11T22:25:08.434Z,2.13
2019-05-11T22:27:38.903Z,1.80
2019-05-11T22:30:08.738Z,2.00
2019-05-11T22:32:38.771Z,2.10
2019-05-11T22:35:08.897Z,2.37
2019-05-11T22:37:38.563Z,2.30
2019-05-11T22:40:08.942Z,2.10
2019-05-11T22:42:37.872Z,1.90
2019-05-11T22:45:08.564Z,1.60
2019-05-11T22:47:39.287Z,1.70
2019-05-11T22:50:08.437Z,1.47
2019-05-11T22:52:39.716Z,1.93
2019-05-11T22:55:11.580Z,1.80
2019-05-11T22:57:38.704Z,1.63
2019-05-11T23:00:08.170Z,2.07
2019-05-11T23:02:38.049Z,1.73
2019-05-11T23:05:08.532Z,1.90
2019-05-11T23:07:41.093Z,1.90
2019-05-11T23:10:08.833Z,1.53
2019-05-11T23:12:38.753Z,1.40
2019-05-11T23:15:12.894Z,1.60
2019-05-11T23:17:42.148Z,1.87
2019-05-11T23:20:11.736Z,2.00
2019-05-11T23:22:57.792Z,2.00
2019-05-11T23:25:20.355Z,1.37
2019-05-11T23:27:49.230Z,1.97
2019-05-11T23:30:19.771Z,1.53
2019-05-11T23:32:49.168Z,1.70
2019-05-11T23:35:19.065Z,1.60
2019-05-11T23:37:49.424Z,2.00
2019-05-11T23:40:19.221Z,1.70
2019-05-11T23:42:48.988Z,2.00
2019-05-11T23:45:19.252Z,1.67
2019-05-11T23:47:49.027Z,1.77
2019-05-11T23:50:19.120Z,1.80
2019-05-11T23:52:50.237Z,2.03
2019-05-11T23:55:19.343Z,1.73
2019-05-11T23:57:48.848Z,2.00
